Time;durP1;ratioP1;P1;durP2;ratioP2;P2;SDS_P1;SDS_P2;PMS_P1;PMS_P2;Temp;Humidity;BMP_temperature;BMP_pressure;BME280_temperature;BME280_humidity;BME280_pressure;Samples;Min_cycle;Max_cycle;Signal;HPM_P1;HPM_P2
2023/01/16 00:00:56;;;;;;;5.65;2.97;;;;;;;4.97;100.00;161866.63;5071026;28;20040;-62
2023/01/16 00:03:21;;;;;;;5.03;3.22;;;;;;;5.04;100.00;161885.47;5072368;28;20074;-62
2023/01/16 00:05:47;;;;;;;7.07;3.95;;;;;;;5.07;100.00;161893.53;5070239;28;20067;-62
2023/01/16 00:08:13;;;;;;;12.70;5.38;;;;;;;5.06;100.00;161890.84;5072282;28;20055;-62
2023/01/16 00:10:38;;;;;;;7.45;3.08;;;;;;;5.15;100.00;161912.38;5071195;28;20410;-62
2023/01/16 00:13:04;;;;;;;13.85;4.18;;;;;;;5.15;100.00;161912.38;5072104;28;20024;-62
2023/01/16 00:15:29;;;;;;;7.05;3.42;;;;;;;5.19;100.00;161923.13;5070279;28;20056;-62
2023/01/16 00:17:54;;;;;;;7.13;4.97;;;;;;;5.22;100.00;161931.19;5072181;28;20016;-62
2023/01/16 00:20:20;;;;;;;5.80;2.80;;;;;;;5.22;100.00;161931.19;5070351;28;20025;-62
2023/01/16 00:22:45;;;;;;;5.10;2.38;;;;;;;5.22;100.00;161931.19;5071948;28;20027;-62
2023/01/16 00:25:11;;;;;;;4.45;3.55;;;;;;;5.21;100.00;161929.81;5070569;28;20449;-62
2023/01/16 00:27:36;;;;;;;10.30;4.47;;;;;;;5.24;100.00;161937.91;5071738;28;20031;-62
2023/01/16 00:30:03;;;;;;;11.82;3.50;;;;;;;5.25;100.00;161939.25;5071925;28;20029;-62
2023/01/16 00:32:28;;;;;;;6.85;2.97;;;;;;;5.28;100.00;161946.00;5070067;28;20040;-62
2023/01/16 00:34:54;;;;;;;8.27;3.30;;;;;;;5.30;100.00;161952.72;5071886;28;20044;-62
2023/01/16 00:37:19;;;;;;;3.65;3.35;;;;;;;5.27;100.00;161944.66;5070205;28;20446;-62
2023/01/16 00:39:44;;;;;;;9.50;5.82;;;;;;;5.27;100.00;161944.66;5071944;28;20025;-62
2023/01/16 00:42:10;;;;;;;9.15;3.78;;;;;;;5.27;100.00;161944.66;5069727;28;20047;-62
2023/01/16 00:44:35;;;;;;;12.48;3.80;;;;;;;5.14;100.00;161909.69;5071485;28;20039;-62
2023/01/16 00:47:01;;;;;;;3.30;2.85;;;;;;;5.20;100.00;161925.81;5069827;28;20040;-62
2023/01/16 00:49:27;;;;;;;3.97;2.40;;;;;;;5.16;100.00;161916.41;5071381;28;20404;-62
2023/01/16 00:51:52;;;;;;;9.77;4.30;;;;;;;5.18;100.00;161920.41;5070199;28;20067;-62
2023/01/16 00:54:18;;;;;;;4.20;3.08;;;;;;;5.11;100.00;161902.97;5071320;28;20024;-62
2023/01/16 00:56:44;;;;;;;4.50;3.50;;;;;;;5.11;100.00;161901.59;5069550;28;20407;-61
2023/01/16 00:59:10;;;;;;;5.15;3.50;;;;;;;5.07;100.00;161893.53;5071146;28;20036;-61
2023/01/16 01:01:35;;;;;;;4.80;2.60;;;;;;;5.02;100.00;161880.13;5069773;28;20041;-61
2023/01/16 01:04:01;;;;;;;7.03;3.10;;;;;;;4.90;100.00;161847.81;5071105;28;20027;-61
2023/01/16 01:06:26;;;;;;;5.63;3.03;;;;;;;4.82;100.00;161827.66;5069368;28;20094;-61
2023/01/16 01:08:52;;;;;;;3.55;3.05;;;;;;;4.78;100.00;161815.56;5071624;28;20391;-61
2023/01/16 01:11:17;;;;;;;6.00;3.53;;;;;;;4.70;100.00;161796.72;5068910;28;20039;-62
2023/01/16 01:13:43;;;;;;;9.65;3.63;;;;;;;4.63;100.00;161777.91;5071317;28;20031;-62
2023/01/16 01:16:09;;;;;;;3.63;3.33;;;;;;;4.52;100.00;161748.31;5052046;28;20491;-62
2023/01/16 01:18:35;;;;;;;6.63;2.63;;;;;;;4.52;100.00;161749.66;5050860;28;20032;-62
2023/01/16 01:21:01;;;;;;;3.30;3.10;;;;;;;4.51;100.00;161746.97;5049645;28;20040;-63
2023/01/16 01:23:26;;;;;;;4.80;3.45;;;;;;;4.48;100.00;161737.56;5051089;28;20028;-63
2023/01/16 01:25:52;;;;;;;3.88;3.58;;;;;;;4.48;100.00;161737.56;5049209;28;20403;-63
2023/01/16 01:28:18;;;;;;;6.57;3.67;;;;;;;4.47;100.00;161734.88;5051045;28;20021;-63
2023/01/16 01:30:43;;;;;;;5.78;4.45;;;;;;;4.40;100.00;161717.38;5049525;28;20068;-63
2023/01/16 01:33:09;;;;;;;7.38;3.92;;;;;;;4.44;100.00;161729.47;5050678;28;20029;-63
2023/01/16 01:35:35;;;;;;;3.47;3.28;;;;;;;4.45;100.00;161730.84;5049550;28;20092;-62
2023/01/16 01:38:00;;;;;;;3.47;3.25;;;;;;;4.44;100.00;161728.16;5060856;28;20027;-62
2023/01/16 01:40:26;;;;;;;5.75;5.07;;;;;;;4.49;100.00;161740.25;5069279;28;20513;-62
2023/01/16 01:42:51;;;;;;;5.95;3.80;;;;;;;4.50;100.00;161742.97;5070110;28;20391;-62
2023/01/16 01:45:23;;;;;;;4.53;3.88;;;;;;;4.45;100.00;161732.19;5069135;28;20032;-63
2023/01/16 01:47:59;;;;;;;5.07;3.38;;;;;;;4.46;100.00;161733.56;5070690;28;20448;-63
2023/01/16 01:50:40;;;;;;;5.72;5.22;;;;;;;4.44;100.00;161728.16;5069001;28;20055;-62
2023/01/16 01:53:18;;;;;;;4.28;3.97;;;;;;;4.43;100.00;161726.78;5070848;28;20099;-63
2023/01/16 01:55:46;;;;;;;8.25;3.88;;;;;;;4.47;100.00;161734.88;5065671;28;20041;-63
2023/01/16 01:58:18;;;;;;;3.35;3.10;;;;;;;4.36;100.00;161707.97;5063240;28;20107;-63
2023/01/16 02:00:44;;;;;;;5.10;3.72;;;;;;;4.23;100.00;161673.03;5069491;28;20128;-63
2023/01/16 02:03:15;;;;;;;4.25;3.85;;;;;;;4.22;100.00;161670.34;5070091;28;20032;-62
2023/01/16 02:05:46;;;;;;;5.70;5.20;;;;;;;4.20;100.00;161665.00;5069303;28;20094;-62
2023/01/16 02:08:19;;;;;;;4.45;3.92;;;;;;;4.19;100.00;161662.31;5070492;28;20024;-62
2023/01/16 02:10:51;;;;;;;4.85;4.22;;;;;;;4.13;100.00;161648.81;5068716;28;20051;-62
2023/01/16 02:13:17;;;;;;;3.95;3.70;;;;;;;4.11;100.00;161643.47;5056485;28;20028;-62
2023/01/16 02:21:36;;;;;;;6.53;3.97;;;;;;;3.97;100.00;161605.84;5052926;28;20039;-61
2023/01/16 02:24:10;;;;;;;3.70;3.47;;;;;;;3.97;100.00;161605.84;5055573;28;20470;-61
2023/01/16 02:26:51;;;;;;;5.45;3.50;;;;;;;3.91;100.00;161589.75;5052450;28;20462;-61
2023/01/16 02:29:25;;;;;;;3.80;3.53;;;;;;;3.92;100.00;161592.38;5054322;28;20395;-62
2023/01/16 02:32:18;;;;;;;8.65;4.13;;;;;;;3.90;100.00;161587.03;5052893;28;20045;-61
2023/01/16 02:34:55;;;;;;;4.78;4.22;;;;;;;3.88;100.00;161581.66;5054416;28;20535;-61
2023/01/16 02:37:32;;;;;;;7.32;4.50;;;;;;;3.86;100.00;161577.63;5052504;28;20116;-61
2023/01/16 02:40:40;;;;;;;7.35;4.13;;;;;;;3.83;100.00;161569.56;5054075;28;20032;-62
2023/01/16 02:43:28;;;;;;;9.65;4.22;;;;;;;3.80;100.00;161562.84;5047258;28;20052;-62
2023/01/16 02:46:19;;;;;;;5.00;4.50;;;;;;;3.85;100.00;161573.56;5052469;28;20114;-62
2023/01/16 02:49:48;;;;;;;4.13;3.83;;;;;;;3.80;100.00;161562.84;5051598;28;20128;-63
2023/01/16 02:52:37;;;;;;;6.22;4.65;;;;;;;3.85;100.00;161573.56;5009835;28;20045;-63
2023/01/16 02:55:30;;;;;;;5.43;4.93;;;;;;;3.86;100.00;161577.63;5011463;28;20499;-63
2023/01/16 02:58:01;;;;;;;8.63;5.10;;;;;;;3.85;100.00;161573.56;5044623;28;20049;-62
2023/01/16 03:00:27;;;;;;;8.27;5.40;;;;;;;3.80;100.00;161562.84;5052113;28;20052;-62
2023/01/16 03:02:53;;;;;;;9.63;5.13;;;;;;;3.91;100.00;161589.75;5053294;28;20028;-62
2023/01/16 03:05:19;;;;;;;5.28;4.38;;;;;;;3.94;100.00;161597.78;5051823;28;20114;-62
2023/01/16 03:08:05;;;;;;;4.25;3.95;;;;;;;3.92;100.00;161592.38;5053564;28;20033;-62
2023/01/16 03:10:56;;;;;;;4.68;4.38;;;;;;;4.02;100.00;161619.28;5061543;28;20506;-62
2023/01/16 03:13:40;;;;;;;6.28;5.15;;;;;;;4.05;100.00;161627.38;5073608;28;20027;-62
2023/01/16 03:16:36;;;;;;;10.10;5.38;;;;;;;4.08;100.00;161635.41;5072051;28;20033;-62
2023/01/16 03:19:41;;;;;;;9.95;5.07;;;;;;;4.10;100.00;161640.78;5073132;28;20035;-62
2023/01/16 03:22:15;;;;;;;8.52;4.57;;;;;;;4.14;100.00;161650.19;5015153;28;20042;-62
2023/01/16 03:24:48;;;;;;;7.53;5.10;;;;;;;4.16;100.00;161654.22;5012764;28;20030;-62
2023/01/16 03:27:28;;;;;;;8.05;4.47;;;;;;;4.20;100.00;161666.31;5029135;28;20065;-62
2023/01/16 03:30:01;;;;;;;7.60;5.15;;;;;;;4.20;100.00;161665.00;5037704;28;20033;-62
2023/01/16 03:32:42;;;;;;;8.63;4.32;;;;;;;4.24;100.00;161675.72;5051277;28;20518;-62
2023/01/16 03:35:22;;;;;;;11.93;4.47;;;;;;;4.24;100.00;161675.72;5052970;28;20029;-62
2023/01/16 03:37:53;;;;;;;14.60;5.38;;;;;;;4.23;100.00;161674.41;5051616;28;20041;-62
2023/01/16 03:40:24;;;;;;;10.05;4.53;;;;;;;4.16;100.00;161655.59;5052438;28;20025;-62
2023/01/16 03:43:00;;;;;;;27.13;4.55;;;;;;;4.05;100.00;161627.38;5051514;28;20083;-62
2023/01/16 03:45:32;;;;;;;9.40;3.90;;;;;;;3.92;100.00;161593.75;5052703;28;20712;-62
2023/01/16 03:48:08;;;;;;;10.05;4.82;;;;;;;3.85;100.00;161573.56;5051123;28;20056;-62
2023/01/16 03:50:35;;;;;;;6.22;3.90;;;;;;;3.83;100.00;161568.22;5052710;28;20514;-61
2023/01/16 03:53:13;;;;;;;6.90;4.47;;;;;;;3.85;100.00;161573.56;5050053;28;20045;-62
2023/01/16 03:55:50;;;;;;;8.80;4.10;;;;;;;3.81;100.00;161565.53;5052550;28;20499;-60
2023/01/16 03:58:30;;;;;;;7.03;3.55;;;;;;;3.84;100.00;161570.88;5051032;28;20060;-60
2023/01/16 04:01:27;;;;;;;7.30;4.85;;;;;;;3.72;100.00;161541.34;5051119;28;20020;-60
2023/01/16 04:04:02;;;;;;;11.13;3.22;;;;;;;3.52;100.00;161488.94;5051227;28;20035;-60
2023/01/16 04:06:45;;;;;;;8.13;4.43;;;;;;;3.35;100.00;161444.59;5051032;28;20398;-61
2023/01/16 04:09:18;;;;;;;13.30;3.95;;;;;;;3.20;100.00;161404.31;5052022;28;20036;-62
2023/01/16 04:11:45;;;;;;;13.77;3.88;;;;;;;3.05;100.00;161365.38;5050346;28;20057;-60
2023/01/16 04:14:13;;;;;;;10.05;4.45;;;;;;;2.93;100.00;161334.50;5052288;28;20045;-60
2023/01/16 04:16:40;;;;;;;8.05;3.70;;;;;;;2.89;100.00;161323.72;5050723;28;20411;-60
2023/01/16 04:19:07;;;;;;;7.38;3.92;;;;;;;2.89;100.00;161323.72;5052228;28;20484;-60
2023/01/16 04:21:33;;;;;;;16.65;5.93;;;;;;;2.89;100.00;161323.72;5050552;28;20128;-61
2023/01/16 04:23:59;;;;;;;5.60;4.18;;;;;;;2.95;100.00;161339.81;5052033;28;20048;-61
2023/01/16 04:26:25;;;;;;;15.85;3.85;;;;;;;3.01;100.00;161355.97;5050501;28;20086;-61
2023/01/16 04:28:54;;;;;;;13.63;4.45;;;;;;;3.00;100.00;161353.28;5052524;28;20443;-61
2023/01/16 04:31:23;;;;;;;8.38;6.03;;;;;;;2.95;100.00;161341.19;5049914;28;20573;-61
2023/01/16 04:33:49;;;;;;;13.73;5.80;;;;;;;2.92;100.00;161331.78;5051891;28;20507;-61
2023/01/16 04:36:15;;;;;;;12.98;4.35;;;;;;;2.90;100.00;161326.41;5065919;28;20024;-61
2023/01/16 04:38:40;;;;;;;6.45;3.45;;;;;;;2.76;100.00;161291.50;5071979;28;20024;-61
2023/01/16 04:41:06;;;;;;;9.07;3.20;;;;;;;2.90;100.00;161326.41;5069942;28;20364;-61
2023/01/16 04:43:31;;;;;;;11.35;4.82;;;;;;;2.87;100.00;161319.69;5071472;28;20025;-61
2023/01/16 04:45:56;;;;;;;7.97;4.38;;;;;;;2.84;100.00;161311.63;5069619;28;20024;-60
2023/01/16 04:48:22;;;;;;;11.13;6.05;;;;;;;2.79;100.00;161299.53;5071434;28;20074;-62
2023/01/16 04:50:49;;;;;;;8.07;3.47;;;;;;;2.81;100.00;161304.91;5071496;28;20032;-61
2023/01/16 04:53:14;;;;;;;13.52;5.05;;;;;;;2.80;100.00;161302.22;5069595;28;20040;-61
2023/01/16 04:55:40;;;;;;;22.90;5.78;;;;;;;2.92;100.00;161331.78;5060364;28;20395;-61
2023/01/16 04:58:05;;;;;;;12.60;4.88;;;;;;;3.00;100.00;161353.28;5050229;28;20071;-61
2023/01/16 05:00:30;;;;;;;9.95;3.80;;;;;;;3.09;100.00;161376.09;5051013;28;20071;-61
2023/01/16 05:02:56;;;;;;;7.35;4.30;;;;;;;3.15;100.00;161393.59;5050040;28;20098;-61
2023/01/16 05:05:21;;;;;;;7.03;4.25;;;;;;;3.13;100.00;161388.19;5050714;28;20041;-62
2023/01/16 05:08:15;;;;;;;13.98;4.85;;;;;;;3.16;100.00;161394.91;5049811;28;20040;-61
2023/01/16 05:10:32;;;;;;;10.60;4.15;;;;;;;3.12;100.00;161385.50;5058623;28;20071;-62
2023/01/16 05:12:57;;;;;;;8.52;5.07;;;;;;;3.12;100.00;161385.50;5063532;28;20040;-62
2023/01/16 05:15:22;;;;;;;14.13;4.65;;;;;;;3.08;100.00;161374.78;5050639;28;20032;-61
2023/01/16 05:17:47;;;;;;;9.88;4.50;;;;;;;3.04;100.00;161364.00;5049750;28;20059;-61
2023/01/16 05:20:13;;;;;;;5.10;3.83;;;;;;;3.01;100.00;161355.97;5050575;28;20484;-61
2023/01/16 05:22:38;;;;;;;10.20;5.22;;;;;;;3.01;100.00;161355.97;5060498;28;20438;-61
2023/01/16 05:25:04;;;;;;;10.30;6.15;;;;;;;3.01;100.00;161355.97;5052030;28;20028;-61
2023/01/16 05:27:29;;;;;;;7.97;3.33;;;;;;;2.97;100.00;161346.59;5067615;28;20057;-61
2023/01/16 05:29:55;;;;;;;16.42;4.93;;;;;;;2.91;100.00;161329.09;5071110;28;20033;-61
2023/01/16 05:32:20;;;;;;;6.20;3.42;;;;;;;2.85;100.00;161315.69;5069127;28;20036;-61
2023/01/16 05:34:45;;;;;;;13.07;5.03;;;;;;;2.82;100.00;161307.59;5066404;28;20475;-61
2023/01/16 05:37:11;;;;;;;7.13;4.25;;;;;;;2.87;100.00;161318.38;5049031;28;20389;-61
2023/01/16 05:39:36;;;;;;;15.20;5.78;;;;;;;2.87;100.00;161318.38;5050692;28;20040;-61
2023/01/16 05:42:01;;;;;;;6.10;4.15;;;;;;;2.82;100.00;161307.59;5049387;28;20037;-61
2023/01/16 05:44:27;;;;;;;9.07;4.78;;;;;;;2.84;100.00;161313.00;5050152;28;20027;-61
2023/01/16 05:46:52;;;;;;;5.22;3.67;;;;;;;2.85;100.00;161315.69;5048872;28;20048;-61
2023/01/16 05:49:17;;;;;;;11.02;5.38;;;;;;;2.81;100.00;161304.91;5050416;28;20483;-61
2023/01/16 05:51:43;;;;;;;11.65;6.10;;;;;;;2.82;100.00;161307.59;5049143;28;20411;-60
2023/01/16 05:54:11;;;;;;;6.53;5.00;;;;;;;2.81;100.00;161304.91;5050172;28;20032;-60
2023/01/16 05:56:37;;;;;;;12.63;6.90;;;;;;;2.83;100.00;161310.31;5049484;28;20057;-60
2023/01/16 05:59:02;;;;;;;14.82;6.30;;;;;;;2.82;100.00;161307.59;5050773;28;20035;-61
2023/01/16 06:01:27;;;;;;;13.93;6.05;;;;;;;2.91;100.00;161329.09;5048708;28;20052;-60
2023/01/16 06:03:53;;;;;;;9.75;5.15;;;;;;;2.99;100.00;161350.59;5050390;28;20037;-61
2023/01/16 06:06:18;;;;;;;10.65;5.60;;;;;;;3.02;100.00;161358.63;5048584;28;20515;-60
2023/01/16 06:08:45;;;;;;;11.98;5.43;;;;;;;3.01;100.00;161355.97;5050313;28;20021;-60
2023/01/16 06:11:10;;;;;;;12.80;6.00;;;;;;;3.04;100.00;161364.00;5048725;28;20039;-60
2023/01/16 06:13:36;;;;;;;8.27;5.68;;;;;;;3.05;100.00;161366.72;5050365;28;20017;-61
2023/01/16 06:16:01;;;;;;;8.65;4.82;;;;;;;3.07;100.00;161372.09;5048927;28;20021;-61
2023/01/16 06:18:26;;;;;;;10.00;4.57;;;;;;;3.12;100.00;161385.50;5050465;28;20468;-61
2023/01/16 06:20:52;;;;;;;10.70;4.88;;;;;;;3.11;100.00;161382.81;5050363;28;20385;-59
2023/01/16 06:23:17;;;;;;;7.18;4.95;;;;;;;3.10;100.00;161380.13;5048347;28;20041;-60
2023/01/16 06:25:42;;;;;;;6.55;4.30;;;;;;;3.21;100.00;161407.00;5050453;28;20032;-59
2023/01/16 06:28:08;;;;;;;9.50;5.45;;;;;;;3.22;100.00;161411.00;5048746;28;20040;-59
2023/01/16 06:30:33;;;;;;;11.27;4.88;;;;;;;3.28;100.00;161425.81;5048503;28;20494;-59
2023/01/16 06:32:58;;;;;;;8.70;4.15;;;;;;;3.31;100.00;161433.88;5049648;28;20036;-59
2023/01/16 06:35:24;;;;;;;9.10;4.75;;;;;;;3.40;100.00;161458.03;5048642;28;20029;-60
2023/01/16 06:37:49;;;;;;;6.00;3.85;;;;;;;3.44;100.00;161468.81;5050477;28;20029;-60
2023/01/16 06:40:14;;;;;;;4.72;3.45;;;;;;;3.55;100.00;161495.63;5048566;28;20021;-60
2023/01/16 06:42:40;;;;;;;9.50;4.45;;;;;;;3.61;100.00;161511.81;5050361;28;20025;-59
2023/01/16 06:45:06;;;;;;;7.60;5.03;;;;;;;3.66;100.00;161525.22;5049768;28;20361;-59
2023/01/16 06:47:32;;;;;;;7.05;3.80;;;;;;;3.73;100.00;161544.03;5048426;28;20562;-59
2023/01/16 06:49:57;;;;;;;5.30;4.68;;;;;;;3.75;100.00;161549.41;5050562;28;20029;-60
2023/01/16 06:52:22;;;;;;;10.02;4.75;;;;;;;3.79;100.00;161560.16;5048101;28;20045;-59
2023/01/16 06:54:48;;;;;;;4.35;3.92;;;;;;;3.78;100.00;161557.44;5050308;28;20044;-60
2023/01/16 06:57:14;;;;;;;7.70;3.35;;;;;;;3.86;100.00;161576.25;5048382;28;20090;-60
2023/01/16 06:59:40;;;;;;;4.07;3.60;;;;;;;3.79;100.00;161560.16;5052522;28;20021;-60
2023/01/16 07:02:05;;;;;;;4.80;3.65;;;;;;;3.78;100.00;161557.44;5052212;28;20037;-60
2023/01/16 07:04:30;;;;;;;7.55;3.40;;;;;;;3.76;100.00;161550.75;5053124;28;20052;-59
2023/01/16 07:06:56;;;;;;;4.80;4.30;;;;;;;3.73;100.00;161542.66;5051784;28;20044;-60
2023/01/16 07:09:30;;;;;;;8.13;3.75;;;;;;;3.69;100.00;161533.25;5053644;28;20021;-59
2023/01/16 07:11:56;;;;;;;8.18;3.88;;;;;;;3.68;100.00;161530.59;5052209;28;20044;-60
2023/01/16 07:22:38;;;;;;;7.90;3.70;;;;;;;3.62;100.00;161515.81;5031881;28;20055;-60
2023/01/16 07:25:09;;;;;;;7.28;4.03;;;;;;;3.68;100.00;161530.59;5033574;28;20377;-60
2023/01/16 07:27:34;;;;;;;5.18;2.58;;;;;;;3.72;100.00;161540.00;5051342;28;20095;-60
2023/01/16 07:30:00;;;;;;;3.78;3.15;;;;;;;3.70;100.00;161535.94;5051027;28;20025;-60
2023/01/16 07:32:25;;;;;;;3.00;2.80;;;;;;;3.72;100.00;161541.34;5049660;28;20042;-60
2023/01/16 07:34:51;;;;;;;3.10;2.72;;;;;;;3.76;100.00;161552.06;5051707;28;20017;-60
2023/01/16 07:37:16;;;;;;;10.18;3.05;;;;;;;3.84;100.00;161572.25;5049365;28;20466;-60
2023/01/16 07:39:41;;;;;;;3.63;2.75;;;;;;;3.88;100.00;161582.97;5051890;28;20290;-60
2023/01/16 07:42:07;;;;;;;2.95;2.28;;;;;;;3.85;100.00;161574.94;5050815;28;20037;-60
2023/01/16 07:44:33;;;;;;;4.97;2.50;;;;;;;3.85;100.00;161573.56;5050513;28;20116;-60
2023/01/16 07:46:58;;;;;;;4.47;2.25;;;;;;;3.93;100.00;161595.06;5049375;28;20388;-60
2023/01/16 07:49:23;;;;;;;7.53;3.03;;;;;;;3.97;100.00;161605.84;5052660;28;20054;-60
2023/01/16 07:51:49;;;;;;;5.20;2.83;;;;;;;3.97;100.00;161605.84;5050811;28;20064;-60
2023/01/16 07:54:14;;;;;;;6.13;2.60;;;;;;;3.88;100.00;161581.66;5052462;28;20027;-60
2023/01/16 07:56:39;;;;;;;3.90;2.92;;;;;;;3.86;100.00;161576.25;5051261;28;20279;-60
2023/01/16 07:59:05;;;;;;;4.75;2.25;;;;;;;3.87;100.00;161580.28;5052308;28;20032;-60
2023/01/16 08:01:31;;;;;;;4.40;2.40;;;;;;;3.88;100.00;161581.66;5050808;28;20526;-60
2023/01/16 08:03:56;;;;;;;4.45;2.50;;;;;;;3.86;100.00;161576.25;5052792;28;20028;-60
2023/01/16 08:06:21;;;;;;;4.63;2.60;;;;;;;3.86;100.00;161577.63;5049980;28;20045;-60
2023/01/16 08:08:47;;;;;;;4.03;3.08;;;;;;;3.88;100.00;161582.97;5052553;28;20025;-60
2023/01/16 08:13:56;;;;;;;6.50;2.25;;;;;;;3.87;100.00;161578.97;5051905;28;20086;-60
2023/01/16 08:16:21;;;;;;;2.67;2.47;;;;;;;3.83;100.00;161568.22;5050615;28;20037;-60
2023/01/16 08:18:48;;;;;;;3.60;3.03;;;;;;;3.78;100.00;161557.44;5052389;28;20033;-60
2023/01/16 08:21:15;;;;;;;4.05;3.38;;;;;;;3.75;100.00;161549.41;5050071;28;20049;-60
2023/01/16 08:23:40;;;;;;;2.90;2.17;;;;;;;3.76;100.00;161552.06;5052106;28;20543;-60
2023/01/16 08:26:06;;;;;;;6.50;2.95;;;;;;;3.72;100.00;161541.34;5050720;28;20044;-60
2023/01/16 08:28:31;;;;;;;4.30;3.03;;;;;;;3.73;100.00;161544.03;5050381;28;20036;-60
2023/01/16 08:31:07;;;;;;;3.20;3.00;;;;;;;3.74;100.00;161546.72;5050100;28;20041;-60
2023/01/16 08:33:34;;;;;;;3.95;3.63;;;;;;;3.62;100.00;161514.44;5052222;28;20025;-59
2023/01/16 08:36:00;;;;;;;2.65;2.30;;;;;;;3.72;100.00;161541.34;5050220;28;20534;-60
2023/01/16 08:38:25;;;;;;;5.93;3.05;;;;;;;3.71;100.00;161537.31;5051700;28;20013;-60
2023/01/16 08:40:50;;;;;;;2.78;2.58;;;;;;;3.68;100.00;161530.59;5050418;28;20048;-60
2023/01/16 08:51:22;;;;;;;8.82;3.72;;;;;;;3.68;100.00;161530.59;5049817;28;20055;-60
2023/01/16 08:53:51;;;;;;;2.85;2.60;;;;;;;3.70;100.00;161535.94;5051654;28;20025;-60
2023/01/16 08:56:17;;;;;;;3.58;2.63;;;;;;;3.68;100.00;161530.59;5049191;28;20036;-60
2023/01/16 08:58:42;;;;;;;8.70;4.00;;;;;;;3.62;100.00;161515.81;5050778;28;20075;-60
2023/01/16 09:01:08;;;;;;;5.88;3.00;;;;;;;3.60;100.00;161509.09;5041716;28;20041;-59
2023/01/16 09:03:36;;;;;;;8.75;3.20;;;;;;;3.60;100.00;161509.09;5030899;28;20028;-60
2023/01/16 09:06:01;;;;;;;4.28;3.45;;;;;;;3.54;100.00;161493.00;5037288;28;20075;-60
2023/01/16 09:08:27;;;;;;;9.27;2.50;;;;;;;3.56;100.00;161498.34;5051321;28;20029;-60
2023/01/16 09:13:48;;;;;;;7.57;2.88;;;;;;;3.48;100.00;161478.22;5048124;28;20047;-60
2023/01/16 09:16:15;;;;;;;3.17;2.95;;;;;;;3.46;100.00;161474.13;5049619;28;20517;-59
2023/01/16 09:18:40;;;;;;;4.15;2.88;;;;;;;3.47;100.00;161476.84;5051452;28;20072;-59
2023/01/16 09:21:06;;;;;;;7.93;3.00;;;;;;;3.43;100.00;161464.72;5048660;28;20095;-59
2023/01/16 09:23:31;;;;;;;7.90;3.83;;;;;;;3.45;100.00;161471.50;5050709;28;20075;-59
2023/01/16 09:25:56;;;;;;;6.07;3.58;;;;;;;3.47;100.00;161476.84;5049531;28;20037;-60
2023/01/16 09:28:22;;;;;;;4.72;3.63;;;;;;;3.49;100.00;161482.22;5050439;28;20025;-59
2023/01/16 09:30:47;;;;;;;5.15;4.07;;;;;;;3.52;100.00;161487.59;5049682;28;20041;-59
2023/01/16 09:33:12;;;;;;;9.73;3.85;;;;;;;3.53;100.00;161491.63;5050898;28;20029;-59
2023/01/16 09:35:38;;;;;;;5.07;3.75;;;;;;;3.55;100.00;161495.63;5049276;28;20033;-59
2023/01/16 09:38:03;;;;;;;13.75;3.30;;;;;;;3.56;100.00;161498.34;5050809;28;20017;-59
2023/01/16 09:40:29;;;;;;;4.00;3.53;;;;;;;3.60;100.00;161509.09;5048477;28;20044;-59
2023/01/16 09:45:55;;;;;;;17.88;4.75;;;;;;;3.66;100.00;161525.22;5042645;28;20593;-59
2023/01/16 09:48:28;;;;;;;3.20;2.90;;;;;;;3.69;100.00;161531.94;5028893;28;20021;-59
2023/01/16 09:50:56;;;;;;;4.72;3.55;;;;;;;3.71;100.00;161537.31;5035599;28;20467;-59
2023/01/16 09:59:29;;;;;;;4.30;3.90;;;;;;;3.80;100.00;161561.47;5050578;28;20395;-59
2023/01/16 10:02:16;;;;;;;7.35;3.20;;;;;;;3.83;100.00;161568.22;5032310;28;20107;-59
2023/01/16 10:04:42;;;;;;;4.25;3.90;;;;;;;3.84;100.00;161570.88;5029889;28;20046;-59
2023/01/16 10:07:35;;;;;;;4.93;3.53;;;;;;;3.87;100.00;161578.97;5043151;28;20065;-59
2023/01/16 10:10:26;;;;;;;4.72;4.25;;;;;;;3.87;100.00;161580.28;5050449;28;20075;-59
2023/01/16 10:13:07;;;;;;;9.05;3.70;;;;;;;3.87;100.00;161580.28;5047711;28;20419;-60
2023/01/16 10:15:41;;;;;;;4.60;3.28;;;;;;;3.91;100.00;161589.75;5048944;28;20045;-60
2023/01/16 10:18:33;;;;;;;4.40;4.10;;;;;;;3.90;100.00;161587.03;5049794;28;20040;-59
2023/01/16 10:21:23;;;;;;;9.98;3.20;;;;;;;3.95;100.00;161600.47;5048282;28;20124;-60
2023/01/16 10:24:07;;;;;;;8.13;4.95;;;;;;;3.96;100.00;161603.16;5049696;28;20025;-59
2023/01/16 10:26:57;;;;;;;4.53;4.05;;;;;;;3.99;100.00;161611.19;5047618;28;20459;-60
2023/01/16 10:29:30;;;;;;;5.35;3.60;;;;;;;4.00;100.00;161612.56;5049614;28;20068;-59
2023/01/16 10:32:05;;;;;;;6.93;3.67;;;;;;;4.04;100.00;161624.66;5048974;28;20188;-59
2023/01/16 10:34:43;;;;;;;6.22;3.47;;;;;;;4.05;100.00;161627.38;5046914;28;20028;-59
2023/01/16 10:37:10;;;;;;;5.88;4.43;;;;;;;4.10;100.00;161640.78;5052581;28;20033;-59
2023/01/16 10:39:37;;;;;;;5.82;4.65;;;;;;;4.10;100.00;161640.78;5054187;28;20079;-59
2023/01/16 10:50:34;;;;;;;5.97;3.10;;;;;;;4.21;100.00;161667.63;5050809;28;20075;-59
2023/01/16 10:53:00;;;;;;;13.52;4.03;;;;;;;4.18;100.00;161659.59;5053517;28;20029;-59
2023/01/16 10:55:25;;;;;;;6.03;3.75;;;;;;;4.28;100.00;161686.50;5046294;28;20025;-59
2023/01/16 10:58:02;;;;;;;8.05;3.03;;;;;;;4.24;100.00;161675.72;5031619;28;20407;-59
2023/01/16 11:00:33;;;;;;;3.92;2.85;;;;;;;4.21;100.00;161667.63;5034619;28;20560;-59
2023/01/16 11:03:32;;;;;;;5.80;4.20;;;;;;;4.22;100.00;161670.34;5053811;28;20031;-59
2023/01/16 11:06:18;;;;;;;4.85;3.28;;;;;;;4.24;100.00;161675.72;5036501;28;20107;-60
2023/01/16 11:08:47;;;;;;;3.08;2.78;;;;;;;4.26;100.00;161681.13;5053082;28;20561;-59
2023/01/16 11:20:17;;;;;;;7.55;3.33;;;;;;;4.22;100.00;161670.34;5051566;28;20028;-59
2023/01/16 11:22:47;;;;;;;3.78;3.05;;;;;;;4.21;100.00;161667.63;5057566;28;20074;-59
2023/01/16 11:25:18;;;;;;;7.15;3.65;;;;;;;4.24;100.00;161677.09;5059635;28;20033;-59
2023/01/16 11:27:44;;;;;;;3.78;2.97;;;;;;;4.27;100.00;161683.81;5061410;28;20033;-59
2023/01/16 11:30:20;;;;;;;4.43;2.97;;;;;;;4.28;100.00;161686.50;5051798;28;20115;-59
2023/01/16 11:32:48;;;;;;;7.05;3.22;;;;;;;4.25;100.00;161678.41;5053135;28;20024;-59
2023/01/16 11:35:16;;;;;;;2.85;2.63;;;;;;;4.29;100.00;161689.16;5051382;28;20048;-59
2023/01/16 11:37:44;;;;;;;3.20;2.73;;;;;;;4.35;100.00;161703.94;5048074;28;20021;-60
2023/01/16 11:40:19;;;;;;;5.60;3.00;;;;;;;4.39;100.00;161714.72;5031141;28;20025;-59
2023/01/16 11:48:27;;;;;;;3.10;2.70;;;;;;;4.36;100.00;161707.97;5032580;28;20040;-59
2023/01/16 11:50:55;;;;;;;5.38;4.60;;;;;;;4.33;100.00;161699.94;5031404;28;20046;-59
2023/01/16 11:53:21;;;;;;;7.45;3.15;;;;;;;4.42;100.00;161724.13;5032680;28;20027;-59
2023/01/16 11:56:13;;;;;;;3.95;2.53;;;;;;;4.42;100.00;161724.13;5031151;28;20037;-59
2023/01/16 11:58:44;;;;;;;3.03;2.83;;;;;;;4.42;100.00;161724.13;5033246;28;20070;-59
2023/01/16 12:02:15;;;;;;;6.50;3.58;;;;;;;4.47;100.00;161734.88;5031245;28;20045;-59
2023/01/16 12:04:22;;;;;;;3.08;2.53;;;;;;;4.53;100.00;161751.00;5031657;28;20041;-59
2023/01/16 12:07:01;;;;;;;2.15;2.05;;;;;;;4.59;100.00;161767.13;5029797;28;20045;-59
2023/01/16 12:09:29;;;;;;;6.03;2.53;;;;;;;4.71;100.00;161799.41;5032727;28;20377;-59
2023/01/16 12:15:25;;;;;;;3.58;2.95;;;;;;;5.07;100.00;161893.53;5032460;28;20511;-59
2023/01/16 12:18:12;;;;;;;4.65;2.58;;;;;;;5.32;100.00;161958.13;5029370;28;20539;-59
2023/01/16 12:20:58;;;;;;;3.67;2.25;;;;;;;5.28;100.00;161946.00;5030858;28;20533;-59
2023/01/16 12:23:39;;;;;;;2.13;2.03;;;;;;;5.20;100.00;161925.81;5032110;28;20503;-59
2023/01/16 12:26:22;;;;;;;3.08;2.75;;;;;;;5.19;100.00;161923.13;5030670;28;20037;-59
2023/01/16 12:28:50;;;;;;;2.03;1.73;;;;;;;5.15;100.00;161912.38;5032314;28;20029;-59
2023/01/16 12:31:50;;;;;;;2.22;2.00;;;;;;;5.15;100.00;161912.38;5030654;28;20042;-59
2023/01/16 12:34:43;;;;;;;2.70;2.50;;;;;;;5.06;100.00;161890.84;5031603;28;20056;-60
2023/01/16 12:37:33;;;;;;;7.15;3.13;;;;;;;5.23;100.00;161933.91;5030398;28;20124;-59
2023/01/16 12:40:04;;;;;;;1.90;1.80;;;;;;;5.24;100.00;161937.91;5032098;28;20104;-60
2023/01/16 12:45:54;;;;;;;5.40;2.60;;;;;;;5.33;100.00;161960.78;5047035;28;20044;-59